createdAt,value
2022-11-05T00:05:33.415Z,47.62
2022-11-05T00:11:56.156Z,47.78
2022-11-05T00:18:20.715Z,47.80
2022-11-05T00:24:43.808Z,47.72
2022-11-05T00:31:08.455Z,48.01
2022-11-05T00:37:32.760Z,47.86
2022-11-05T00:43:55.816Z,47.97
2022-11-05T00:50:20.189Z,47.94
2022-11-05T00:56:44.516Z,48.12
2022-11-05T01:03:09.282Z,48.10
2022-11-05T01:09:33.850Z,48.26
2022-11-05T01:15:58.199Z,48.05
2022-11-05T01:22:22.502Z,48.24
2022-11-05T01:28:46.883Z,48.19
2022-11-05T01:35:11.200Z,48.23
2022-11-05T01:41:35.749Z,48.40
2022-11-05T01:48:12.040Z,48.27
2022-11-05T01:54:51.549Z,48.49
2022-11-05T02:01:16.021Z,48.60
2022-11-05T02:07:41.054Z,48.26
2022-11-05T02:14:00.378Z,48.48
2022-11-05T02:20:52.146Z,48.54
2022-11-05T02:27:44.243Z,48.51
2022-11-05T02:34:14.554Z,48.69
2022-11-05T02:40:50.803Z,48.79
2022-11-05T02:47:18.002Z,48.29
2022-11-05T02:54:00.838Z,48.30
2022-11-05T03:00:25.184Z,48.11
2022-11-05T03:07:06.391Z,47.74
2022-11-05T03:13:30.855Z,47.51
2022-11-05T03:19:58.358Z,47.16
2022-11-05T03:26:22.748Z,47.16
2022-11-05T03:32:47.043Z,46.79
2022-11-05T03:39:14.212Z,46.57
2022-11-05T03:45:38.615Z,46.58
2022-11-05T03:52:21.091Z,46.55
2022-11-05T03:58:45.401Z,46.27
2022-11-05T04:05:09.632Z,46.33
2022-11-05T04:11:32.283Z,46.05
2022-11-05T04:17:56.582Z,46.12
2022-11-05T04:24:29.981Z,45.92
2022-11-05T04:30:54.421Z,46.11
2022-11-05T04:37:18.703Z,46.01
2022-11-05T04:43:43.021Z,45.95
2022-11-05T04:50:07.302Z,45.87
2022-11-05T04:56:31.648Z,45.88
2022-11-05T05:02:56.154Z,45.90
2022-11-05T05:09:20.496Z,46.05
2022-11-05T05:15:45.018Z,45.99
2022-11-05T05:22:09.418Z,45.93
2022-11-05T05:28:33.806Z,46.06
2022-11-05T05:34:58.130Z,46.05
2022-11-05T05:41:21.402Z,46.02
2022-11-05T05:47:45.825Z,46.15
2022-11-05T05:54:10.249Z,46.12
2022-11-05T06:00:34.499Z,46.17
2022-11-05T06:07:01.817Z,46.25
2022-11-05T06:13:26.089Z,46.38
2022-11-05T06:19:50.352Z,46.47
2022-11-05T06:26:14.655Z,46.26
2022-11-05T06:32:39.079Z,46.38
2022-11-05T06:39:03.326Z,46.44
2022-11-05T06:45:27.691Z,46.60
2022-11-05T06:51:52.037Z,46.58
2022-11-05T06:58:16.404Z,46.68
2022-11-05T07:04:40.734Z,46.67
2022-11-05T07:11:05.160Z,46.59
2022-11-05T07:17:29.402Z,46.66
2022-11-05T07:23:53.753Z,46.90
2022-11-05T07:30:16.724Z,46.83
2022-11-05T07:36:36.401Z,46.96
2022-11-05T07:43:00.749Z,46.95
2022-11-05T07:49:25.052Z,46.99
2022-11-05T07:55:49.429Z,47.12
2022-11-05T08:02:13.988Z,46.97
2022-11-05T08:08:38.496Z,46.85
2022-11-05T08:15:02.815Z,46.90
2022-11-05T08:21:27.151Z,46.87
2022-11-05T08:27:51.568Z,46.99
2022-11-05T08:34:15.876Z,47.00
2022-11-05T08:40:40.111Z,46.96
2022-11-05T08:47:04.463Z,46.93
2022-11-05T08:53:28.776Z,47.06
2022-11-05T08:59:52.490Z,47.18
2022-11-05T09:06:16.798Z,47.36
2022-11-05T09:12:41.237Z,47.29
2022-11-05T09:19:05.616Z,47.22
2022-11-05T09:25:29.877Z,47.16
2022-11-05T09:31:54.248Z,47.18
2022-11-05T09:38:18.536Z,47.37
2022-11-05T09:44:55.067Z,47.36
2022-11-05T09:51:31.589Z,47.24
2022-11-05T09:57:55.968Z,47.38
2022-11-05T10:04:20.283Z,47.53
2022-11-05T10:10:47.553Z,47.50
2022-11-05T10:17:32.736Z,47.64
2022-11-05T10:24:02.177Z,47.52
2022-11-05T10:30:26.503Z,47.48
2022-11-05T10:36:51.033Z,47.53
2022-11-05T10:43:26.700Z,47.37
2022-11-05T10:49:51.105Z,47.29
2022-11-05T10:56:18.370Z,46.95
2022-11-05T11:02:42.806Z,46.75
2022-11-05T11:09:10.081Z,46.61
2022-11-05T11:15:32.829Z,46.33
2022-11-05T11:22:00.199Z,46.10
2022-11-05T11:28:27.311Z,45.82
2022-11-05T11:34:57.159Z,45.65
2022-11-05T11:41:24.361Z,45.58
2022-11-05T11:47:51.600Z,45.60
2022-11-05T11:54:23.895Z,45.57
2022-11-05T12:00:51.615Z,45.41
2022-11-05T12:07:34.077Z,45.27
2022-11-05T12:14:01.006Z,45.11
2022-11-05T12:20:45.415Z,45.14
2022-11-05T12:27:32.762Z,45.25
2022-11-05T12:34:27.504Z,45.26
2022-11-05T12:40:54.640Z,45.30
2022-11-05T12:47:19.275Z,45.36
2022-11-05T12:54:03.994Z,45.32
2022-11-05T13:00:27.279Z,45.59
2022-11-05T13:06:54.548Z,45.38
2022-11-05T13:13:19.170Z,45.27
2022-11-05T13:19:52.157Z,45.40
2022-11-05T13:26:19.697Z,45.52
2022-11-05T13:32:42.556Z,45.60
2022-11-05T13:39:21.995Z,45.60
2022-11-05T13:46:06.046Z,45.60
2022-11-05T13:52:36.502Z,45.63
2022-11-05T13:59:05.743Z,45.96
2022-11-05T14:05:30.141Z,46.01
2022-11-05T14:12:00.290Z,45.93
2022-11-05T14:18:36.688Z,45.90
2022-11-05T14:25:03.772Z,46.25
2022-11-05T14:32:07.380Z,46.22
2022-11-05T14:38:34.068Z,46.30
2022-11-05T14:44:59.084Z,46.37
2022-11-05T14:51:35.479Z,46.29
2022-11-05T14:57:57.913Z,46.57
2022-11-05T15:04:37.359Z,46.54
2022-11-05T15:11:01.679Z,46.62
2022-11-05T15:17:26.107Z,46.83
2022-11-05T15:23:50.411Z,47.09
2022-11-05T15:30:17.819Z,46.99
2022-11-05T15:36:40.367Z,46.95
2022-11-05T15:43:04.694Z,47.18
2022-11-05T15:49:28.985Z,47.25
2022-11-05T15:56:11.567Z,47.11
2022-11-05T16:02:36.088Z,47.28
2022-11-05T16:09:03.454Z,47.31
2022-11-05T16:15:36.567Z,47.39
2022-11-05T16:22:00.852Z,47.27
2022-11-05T16:28:25.106Z,47.62
2022-11-05T16:34:49.590Z,47.49
2022-11-05T16:41:14.045Z,47.44
2022-11-05T16:47:38.398Z,47.69
2022-11-05T16:54:02.723Z,47.63
2022-11-05T17:00:27.110Z,47.85
2022-11-05T17:06:51.433Z,48.01
2022-11-05T17:13:15.760Z,47.70
2022-11-05T17:19:40.152Z,47.85
2022-11-05T17:26:04.640Z,48.08
2022-11-05T17:32:29.019Z,48.09
2022-11-05T17:38:53.402Z,47.86
2022-11-05T17:45:17.705Z,48.16
2022-11-05T17:51:44.984Z,48.19
2022-11-05T17:58:09.381Z,48.17
2022-11-05T18:04:33.824Z,48.15
2022-11-05T18:10:58.223Z,48.22
2022-11-05T18:17:22.681Z,48.28
2022-11-05T18:23:47.047Z,48.03
2022-11-05T18:30:11.292Z,47.71
2022-11-05T18:36:35.801Z,47.23
2022-11-05T18:43:00.102Z,47.15
2022-11-05T18:49:24.508Z,46.82
2022-11-05T18:55:49.022Z,46.68
2022-11-05T19:02:13.505Z,46.25
2022-11-05T19:08:38.088Z,46.12
2022-11-05T19:15:03.238Z,46.19
2022-11-05T19:21:27.800Z,45.83
2022-11-05T19:27:52.092Z,45.94
2022-11-05T19:34:16.315Z,45.99
2022-11-05T19:40:40.665Z,45.88
2022-11-05T19:47:07.805Z,45.81
2022-11-05T19:53:32.098Z,45.59
2022-11-05T19:59:56.635Z,45.83
2022-11-05T20:06:21.054Z,45.71
2022-11-05T20:12:45.470Z,45.52
2022-11-05T20:19:09.751Z,45.78
2022-11-05T20:25:34.078Z,45.85
2022-11-05T20:31:58.378Z,45.59
2022-11-05T20:38:22.758Z,45.61
2022-11-05T20:44:47.095Z,45.55
2022-11-05T20:51:11.447Z,45.65
2022-11-05T20:57:35.741Z,45.61
2022-11-05T21:04:00.166Z,46.00
2022-11-05T21:10:24.488Z,45.89
2022-11-05T21:16:48.761Z,45.70
2022-11-05T21:23:13.084Z,46.12
2022-11-05T21:29:37.374Z,46.18
2022-11-05T21:36:01.720Z,46.15
2022-11-05T21:42:25.975Z,46.23
2022-11-05T21:48:50.305Z,46.20
2022-11-05T21:55:13.218Z,46.15
2022-11-05T22:01:37.767Z,46.24
2022-11-05T22:07:54.656Z,46.45
2022-11-05T22:14:19.066Z,46.47
2022-11-05T22:20:43.363Z,46.56
2022-11-05T22:27:07.686Z,46.65
2022-11-05T22:33:32.101Z,46.99
2022-11-05T22:39:56.491Z,46.95
2022-11-05T22:46:20.858Z,46.98
2022-11-05T22:52:38.199Z,46.86
2022-11-05T22:59:02.487Z,47.09
2022-11-05T23:05:31.949Z,47.36
2022-11-05T23:11:56.218Z,47.18
2022-11-05T23:18:19.164Z,47.25
2022-11-05T23:24:43.321Z,47.49
2022-11-05T23:31:06.120Z,47.47
2022-11-05T23:37:29.136Z,47.49
2022-11-05T23:43:51.731Z,47.65
2022-11-05T23:50:16.268Z,47.36
2022-11-05T23:56:43.005Z,47.64
